Time;durP1;ratioP1;P1;durP2;ratioP2;P2;SDS_P1;SDS_P2;PMS_P1;PMS_P2;Temp;Humidity;BMP_temperature;BMP_pressure;BME280_temperature;BME280_humidity;BME280_pressure;Samples;Min_cycle;Max_cycle;Signal;HPM_P1;HPM_P2
2020/12/24 00:01:59;;;;;;;129.00;49.20;;;7.00;99.90;;;;;;4478053;27;659596;-62
2020/12/24 00:04:46;;;;;;;136.37;49.53;;;7.00;99.90;;;;;;4478212;27;658682;-62
2020/12/24 00:07:32;;;;;;;150.23;56.57;;;7.00;99.90;;;;;;4474609;27;658869;-61
2020/12/24 00:10:20;;;;;;;141.20;53.40;;;7.00;99.90;;;;;;4496325;27;659268;-61
2020/12/24 00:13:07;;;;;;;152.30;55.93;;;6.90;99.90;;;;;;4458735;27;658969;-62
2020/12/24 00:15:55;;;;;;;165.20;58.40;;;6.90;99.90;;;;;;4499646;27;658726;-62
2020/12/24 00:18:42;;;;;;;110.60;46.67;;;7.00;99.90;;;;;;4464112;27;659020;-63
2020/12/24 00:21:29;;;;;;;121.23;45.07;;;7.00;99.90;;;;;;4494738;27;660628;-61
2020/12/24 00:24:16;;;;;;;110.30;47.30;;;7.00;99.90;;;;;;4491866;27;659085;-61
2020/12/24 00:27:03;;;;;;;125.00;48.60;;;7.10;99.90;;;;;;4461222;27;658767;-61
2020/12/24 00:29:51;;;;;;;283.47;66.50;;;7.10;99.90;;;;;;4492483;27;659609;-61
2020/12/24 00:32:39;;;;;;;164.87;61.10;;;7.00;99.90;;;;;;4477037;27;659149;-61
2020/12/24 00:35:27;;;;;;;174.10;60.37;;;7.00;99.90;;;;;;4477405;27;659520;-62
2020/12/24 00:38:14;;;;;;;156.40;58.87;;;7.00;99.90;;;;;;4495319;27;659898;-64
2020/12/24 00:41:01;;;;;;;134.47;53.07;;;6.90;99.90;;;;;;4485201;27;658380;-64
2020/12/24 00:43:48;;;;;;;154.97;58.57;;;6.90;99.90;;;;;;4477956;27;658833;-65
2020/12/24 00:46:34;;;;;;;127.30;51.53;;;7.00;99.90;;;;;;4488206;27;659509;-65
2020/12/24 00:49:23;;;;;;;160.00;55.13;;;6.90;99.90;;;;;;4482673;27;658719;-66
2020/12/24 00:52:10;;;;;;;141.47;53.50;;;6.90;99.90;;;;;;4490891;27;659508;-64
2020/12/24 00:54:57;;;;;;;146.17;54.60;;;6.90;99.90;;;;;;4471856;27;658676;-64
2020/12/24 00:57:44;;;;;;;144.48;55.97;;;7.00;99.90;;;;;;4484111;27;658594;-64
2020/12/24 01:00:32;;;;;;;129.63;50.27;;;7.00;99.90;;;;;;4472461;27;658625;-65
2020/12/24 01:03:19;;;;;;;137.03;51.07;;;7.00;99.90;;;;;;4490512;27;659986;-64
2020/12/24 01:06:07;;;;;;;136.17;50.53;;;7.00;99.90;;;;;;4493394;27;658628;-64
2020/12/24 01:08:54;;;;;;;123.03;49.13;;;7.00;99.90;;;;;;4470933;27;659646;-64
2020/12/24 01:11:41;;;;;;;112.13;47.00;;;7.00;99.90;;;;;;4485572;27;659300;-64
2020/12/24 01:14:27;;;;;;;117.60;45.73;;;7.00;99.90;;;;;;4469558;27;658740;-65
2020/12/24 01:17:15;;;;;;;113.40;44.93;;;7.00;99.90;;;;;;4495937;27;659585;-64
2020/12/24 01:20:02;;;;;;;105.17;44.13;;;7.00;99.90;;;;;;4484076;27;658554;-65
2020/12/24 01:22:50;;;;;;;110.80;43.17;;;7.00;99.90;;;;;;4485276;27;660119;-64
2020/12/24 01:25:37;;;;;;;102.07;42.67;;;7.00;99.90;;;;;;4472203;27;658907;-65
2020/12/24 01:28:24;;;;;;;97.60;41.07;;;7.00;99.90;;;;;;4491219;27;659433;-65
2020/12/24 01:31:11;;;;;;;92.40;38.10;;;7.10;99.90;;;;;;4485758;27;657517;-64
2020/12/24 01:34:01;;;;;;;90.10;38.67;;;7.10;99.90;;;;;;4469610;27;657669;-65
2020/12/24 01:36:48;;;;;;;94.33;38.20;;;7.10;99.90;;;;;;4467415;27;657793;-64
2020/12/24 01:39:36;;;;;;;94.17;37.93;;;7.10;99.90;;;;;;4486874;27;657861;-64
2020/12/24 01:42:23;;;;;;;90.47;38.40;;;7.10;99.90;;;;;;4469291;27;657665;-65
2020/12/24 01:45:10;;;;;;;86.23;36.93;;;7.10;99.90;;;;;;4486636;27;657891;-64
2020/12/24 01:47:57;;;;;;;91.27;37.60;;;7.10;99.90;;;;;;4460171;27;657779;-65
2020/12/24 01:50:44;;;;;;;92.13;37.93;;;7.10;99.90;;;;;;4496402;27;657792;-65
2020/12/24 01:53:31;;;;;;;74.37;32.80;;;7.20;99.90;;;;;;4496158;27;657942;-64
2020/12/24 01:56:19;;;;;;;72.68;32.00;;;7.20;99.90;;;;;;4473901;27;657282;-64
2020/12/24 01:59:06;;;;;;;70.07;30.57;;;7.30;99.90;;;;;;4488270;27;657702;-64
2020/12/24 02:01:53;;;;;;;64.50;30.83;;;7.40;99.90;;;;;;4475698;27;658083;-64
2020/12/24 02:04:40;;;;;;;50.97;21.67;;;7.60;99.90;;;;;;4490326;27;659720;-64
2020/12/24 02:07:27;;;;;;;60.30;29.33;;;7.80;99.90;;;;;;4480981;27;657706;-65
2020/12/24 02:10:14;;;;;;;67.57;30.83;;;8.00;99.90;;;;;;4491449;27;658624;-64
2020/12/24 02:13:02;;;;;;;68.07;30.70;;;7.90;99.90;;;;;;4502454;27;657685;-64
2020/12/24 02:15:49;;;;;;;66.37;30.47;;;7.90;99.90;;;;;;4473981;27;658392;-64
2020/12/24 02:18:36;;;;;;;70.80;32.87;;;8.00;99.90;;;;;;4483417;27;657940;-65
2020/12/24 02:21:24;;;;;;;52.93;24.73;;;8.10;99.90;;;;;;4482679;27;657720;-64
2020/12/24 02:24:11;;;;;;;58.22;28.13;;;8.30;99.90;;;;;;4496509;27;657870;-64
2020/12/24 02:26:58;;;;;;;61.58;30.05;;;8.40;99.90;;;;;;4471675;27;657675;-64
2020/12/24 02:29:45;;;;;;;60.33;28.97;;;8.70;99.90;;;;;;4502528;27;657955;-63
2020/12/24 02:32:32;;;;;;;47.30;21.47;;;8.70;99.90;;;;;;4472629;27;657626;-65
2020/12/24 02:35:19;;;;;;;57.53;27.83;;;8.60;99.90;;;;;;4487827;27;659304;-64
2020/12/24 02:38:07;;;;;;;65.00;32.10;;;8.70;99.90;;;;;;4488610;27;657388;-64
2020/12/24 02:40:54;;;;;;;61.35;30.25;;;8.60;99.90;;;;;;4470304;27;658556;-64
2020/12/24 02:43:45;;;;;;;37.00;16.58;;;8.60;99.90;;;;;;4496042;27;657476;-64
2020/12/24 02:46:32;;;;;;;57.80;28.27;;;8.70;99.90;;;;;;4437729;27;657807;-63
2020/12/24 02:49:19;;;;;;;62.70;31.80;;;8.90;99.90;;;;;;4489359;27;659302;-64
2020/12/24 02:52:06;;;;;;;63.97;30.97;;;8.80;99.90;;;;;;4489588;27;658146;-64
2020/12/24 02:54:54;;;;;;;49.20;23.17;;;8.90;99.90;;;;;;4475305;27;657388;-64
2020/12/24 02:57:41;;;;;;;56.40;28.60;;;9.00;99.90;;;;;;4474775;27;657421;-64
2020/12/24 03:00:28;;;;;;;47.03;22.87;;;9.00;99.90;;;;;;4467218;27;657523;-65
2020/12/24 03:03:16;;;;;;;52.57;27.07;;;9.10;99.90;;;;;;4497416;27;658746;-64
2020/12/24 03:06:03;;;;;;;52.97;27.97;;;9.10;99.90;;;;;;4461730;27;657831;-64
2020/12/24 03:08:50;;;;;;;51.93;26.60;;;9.10;99.90;;;;;;4497485;27;657690;-64
2020/12/24 03:11:41;;;;;;;41.37;22.20;;;9.20;99.90;;;;;;4484371;27;657999;-64
2020/12/24 03:14:28;;;;;;;51.77;26.00;;;9.20;99.90;;;;;;4472654;27;657461;-64
2020/12/24 03:17:15;;;;;;;46.00;23.87;;;9.20;99.90;;;;;;4496891;27;658673;-64
2020/12/24 03:20:02;;;;;;;47.97;25.30;;;9.30;99.90;;;;;;4471991;27;657562;-66
2020/12/24 03:22:49;;;;;;;40.00;21.00;;;9.20;99.90;;;;;;4493027;27;659402;-64
2020/12/24 03:25:36;;;;;;;43.23;23.93;;;9.30;99.90;;;;;;4492332;27;658074;-64
2020/12/24 03:28:23;;;;;;;41.00;23.10;;;9.20;99.90;;;;;;4483662;27;657731;-65
2020/12/24 03:31:10;;;;;;;35.47;20.30;;;9.10;99.90;;;;;;4501285;27;658160;-64
2020/12/24 03:33:57;;;;;;;36.30;21.93;;;9.30;99.90;;;;;;4467536;27;657125;-65
2020/12/24 03:36:44;;;;;;;40.77;21.97;;;9.20;99.90;;;;;;4500202;27;658691;-64
2020/12/24 03:39:32;;;;;;;34.00;19.53;;;9.10;99.90;;;;;;4482820;27;658323;-66
2020/12/24 03:42:19;;;;;;;27.83;16.37;;;9.30;99.90;;;;;;4492031;27;657742;-64
2020/12/24 03:45:07;;;;;;;27.70;16.17;;;9.40;99.90;;;;;;4493324;27;657629;-64
2020/12/24 03:47:54;;;;;;;32.30;17.77;;;9.50;99.90;;;;;;4464541;27;658611;-64
2020/12/24 03:50:40;;;;;;;29.30;16.90;;;9.50;99.90;;;;;;4502305;27;658279;-65
2020/12/24 03:53:27;;;;;;;31.50;16.23;;;9.40;99.90;;;;;;4474351;27;657646;-65
2020/12/24 03:56:14;;;;;;;11.63;6.13;;;9.50;99.90;;;;;;4498098;27;658228;-64
2020/12/24 03:59:02;;;;;;;26.03;14.57;;;9.60;99.90;;;;;;4477478;27;656452;-66
2020/12/24 04:01:50;;;;;;;23.93;14.33;;;9.60;99.90;;;;;;4499657;27;659036;-65
2020/12/24 04:04:37;;;;;;;20.03;12.10;;;9.60;99.90;;;;;;4472284;27;657848;-64
2020/12/24 04:07:24;;;;;;;21.63;13.00;;;9.60;99.90;;;;;;4487774;27;658543;-64
2020/12/24 04:10:11;;;;;;;23.43;13.73;;;9.70;99.90;;;;;;4497830;27;657736;-66
2020/12/24 04:12:58;;;;;;;28.30;14.57;;;9.60;99.90;;;;;;4501583;27;657353;-64
2020/12/24 04:15:48;;;;;;;22.10;14.00;;;9.40;99.90;;;;;;4490005;27;657350;-64
2020/12/24 04:18:36;;;;;;;24.03;13.10;;;9.30;99.90;;;;;;4455440;27;658811;-64
2020/12/24 04:21:23;;;;;;;24.47;13.90;;;9.50;99.90;;;;;;4474082;27;658791;-64
2020/12/24 04:24:10;;;;;;;23.58;14.45;;;9.20;99.90;;;;;;4489391;27;657864;-64
2020/12/24 04:26:57;;;;;;;21.93;12.93;;;9.10;99.90;;;;;;4474008;27;658169;-65
2020/12/24 04:29:44;;;;;;;26.23;14.03;;;9.20;99.90;;;;;;4494494;27;658861;-65
2020/12/24 04:32:32;;;;;;;20.97;12.80;;;9.10;99.90;;;;;;4490562;27;657836;-66
2020/12/24 04:35:20;;;;;;;22.60;13.00;;;9.20;99.90;;;;;;4483602;27;659223;-64
2020/12/24 04:38:07;;;;;;;20.30;13.27;;;9.10;99.90;;;;;;4469192;27;658104;-65
2020/12/24 04:40:57;;;;;;;21.30;12.90;;;9.10;99.90;;;;;;4505236;27;658161;-64
2020/12/24 04:43:44;;;;;;;22.07;12.63;;;9.00;99.90;;;;;;4461362;27;658214;-65
2020/12/24 04:46:32;;;;;;;25.60;13.40;;;9.00;99.90;;;;;;4468785;27;657824;-64
2020/12/24 04:49:19;;;;;;;23.33;13.67;;;8.90;99.90;;;;;;4475377;27;658862;-64
2020/12/24 04:52:07;;;;;;;22.83;12.87;;;9.20;99.90;;;;;;4491676;27;658275;-65
2020/12/24 04:54:54;;;;;;;26.13;13.53;;;9.10;99.90;;;;;;4483428;27;658630;-64
2020/12/24 04:57:41;;;;;;;20.13;12.87;;;9.00;99.90;;;;;;4498830;27;657801;-65
2020/12/24 05:00:28;;;;;;;19.97;11.90;;;8.80;99.90;;;;;;4467277;27;657646;-64
2020/12/24 05:03:15;;;;;;;23.37;12.53;;;8.80;99.90;;;;;;4493872;27;657785;-65
2020/12/24 05:06:02;;;;;;;18.83;11.50;;;8.70;99.90;;;;;;4460692;27;657449;-64
2020/12/24 05:08:53;;;;;;;21.17;11.70;;;8.80;99.90;;;;;;4499092;27;658595;-64
2020/12/24 05:11:44;;;;;;;18.40;12.13;;;8.70;99.90;;;;;;4461298;27;657621;-64
2020/12/24 05:14:31;;;;;;;20.37;12.77;;;8.60;99.90;;;;;;4464815;27;657355;-64
2020/12/24 05:17:18;;;;;;;23.05;12.38;;;8.70;99.90;;;;;;4475949;27;657558;-64
2020/12/24 05:20:05;;;;;;;22.97;13.47;;;8.80;99.90;;;;;;4489854;27;658203;-64
2020/12/24 05:22:52;;;;;;;22.23;13.67;;;8.70;99.90;;;;;;4466504;27;657142;-65
2020/12/24 05:25:41;;;;;;;21.03;12.97;;;8.70;99.90;;;;;;4494243;27;658695;-64
2020/12/24 05:28:29;;;;;;;20.27;12.70;;;8.70;99.90;;;;;;4478827;27;657414;-65
2020/12/24 05:31:32;;;;;;;12.60;8.60;;;8.70;99.90;;;;;;4473061;27;657433;-65
2020/12/24 05:34:22;;;;;;;23.27;13.13;;;9.10;99.90;;;;;;4470137;27;656684;-64
2020/12/24 05:37:11;;;;;;;25.17;15.13;;;9.00;99.90;;;;;;4468559;27;658776;-64
2020/12/24 05:39:58;;;;;;;23.40;14.60;;;8.90;99.90;;;;;;4476488;27;659008;-64
2020/12/24 05:42:50;;;;;;;24.07;15.70;;;8.90;99.90;;;;;;4494931;27;659190;-64
2020/12/24 05:45:37;;;;;;;22.80;13.33;;;8.80;99.90;;;;;;4445305;27;658450;-65
2020/12/24 05:48:24;;;;;;;24.80;15.00;;;8.80;99.90;;;;;;4497562;27;657735;-64
2020/12/24 05:51:16;;;;;;;22.53;15.10;;;8.70;99.90;;;;;;4493967;27;657475;-64
2020/12/24 05:54:03;;;;;;;22.23;13.53;;;8.70;99.90;;;;;;4483000;27;657361;-64
2020/12/24 05:56:50;;;;;;;17.07;11.40;;;8.80;99.90;;;;;;4498402;27;657534;-64
2020/12/24 05:59:38;;;;;;;19.53;12.47;;;9.00;99.90;;;;;;4470905;27;658315;-63
2020/12/24 06:02:25;;;;;;;19.65;12.35;;;8.90;99.90;;;;;;4502702;27;659142;-62
2020/12/24 06:05:12;;;;;;;21.90;12.67;;;9.00;99.90;;;;;;4472684;27;657722;-64
2020/12/24 06:08:04;;;;;;;25.73;14.23;;;8.70;99.90;;;;;;4489534;27;658205;-62
2020/12/24 06:11:04;;;;;;;22.03;11.50;;;8.50;99.90;;;;;;4473104;27;658343;-62
2020/12/24 06:13:51;;;;;;;22.77;12.77;;;8.60;99.90;;;;;;4487970;27;658008;-62
2020/12/24 06:16:39;;;;;;;22.27;12.33;;;8.70;99.90;;;;;;4474101;27;658783;-62
2020/12/24 06:19:26;;;;;;;21.10;12.50;;;8.60;99.90;;;;;;4496958;27;657298;-61
2020/12/24 06:22:13;;;;;;;20.87;12.70;;;8.50;99.90;;;;;;4469236;27;657834;-62
2020/12/24 06:25:00;;;;;;;20.47;11.40;;;8.40;99.90;;;;;;4492553;27;657936;-62
2020/12/24 06:27:49;;;;;;;22.87;12.53;;;8.30;99.90;;;;;;4480431;27;657608;-62
2020/12/24 06:30:37;;;;;;;19.43;11.90;;;8.50;99.90;;;;;;4489569;27;658391;-63
2020/12/24 06:33:28;;;;;;;20.87;12.30;;;8.50;99.90;;;;;;4492959;27;658376;-62
2020/12/24 06:36:32;;;;;;;18.53;11.13;;;8.40;99.90;;;;;;4464879;27;659032;-62
2020/12/24 06:39:38;;;;;;;20.45;11.90;;;8.50;99.90;;;;;;4446598;27;658424;-62
2020/12/24 06:42:41;;;;;;;20.77;13.13;;;8.70;99.90;;;;;;4472384;27;658187;-64
2020/12/24 06:45:32;;;;;;;22.80;13.10;;;8.70;99.90;;;;;;4435360;27;657836;-64
2020/12/24 06:48:21;;;;;;;22.37;12.70;;;8.40;99.90;;;;;;4468041;27;658742;-64
2020/12/24 06:51:12;;;;;;;23.67;13.53;;;8.40;99.90;;;;;;4472971;27;658043;-64
2020/12/24 06:53:59;;;;;;;27.52;14.40;;;8.30;99.90;;;;;;4471406;27;658521;-64
2020/12/24 06:56:47;;;;;;;22.93;13.60;;;8.20;99.90;;;;;;4494969;27;657445;-65
2020/12/24 06:59:33;;;;;;;22.90;13.70;;;8.30;99.90;;;;;;4498750;27;657490;-64
2020/12/24 07:02:24;;;;;;;24.50;14.33;;;8.10;99.90;;;;;;4483903;27;658053;-64
2020/12/24 07:05:44;;;;;;;23.27;13.23;;;8.10;99.90;;;;;;4466006;27;657363;-64
2020/12/24 07:08:48;;;;;;;21.13;13.57;;;8.10;99.90;;;;;;4465114;27;657628;-64
2020/12/24 07:11:41;;;;;;;20.53;11.47;;;8.20;99.90;;;;;;4466306;27;657778;-64
2020/12/24 07:14:29;;;;;;;18.83;11.07;;;8.50;99.90;;;;;;4442348;27;658741;-64
2020/12/24 07:17:20;;;;;;;21.47;12.23;;;8.60;99.90;;;;;;4493385;27;658290;-64
2020/12/24 07:20:07;;;;;;;22.40;12.63;;;8.70;99.90;;;;;;4477912;27;657924;-64
2020/12/24 07:22:55;;;;;;;21.87;12.63;;;8.60;99.90;;;;;;4491899;27;658855;-65
2020/12/24 07:25:43;;;;;;;21.43;12.73;;;8.60;99.90;;;;;;4476317;27;658003;-65
2020/12/24 07:28:30;;;;;;;20.20;12.93;;;8.60;99.90;;;;;;4475990;27;658523;-64
2020/12/24 07:31:18;;;;;;;21.13;12.43;;;8.60;99.90;;;;;;4477516;27;657758;-64
2020/12/24 07:34:05;;;;;;;21.13;12.43;;;8.50;99.90;;;;;;4485298;27;658382;-64
2020/12/24 07:36:52;;;;;;;21.87;12.60;;;8.70;99.90;;;;;;4474814;27;657428;-64
2020/12/24 07:39:39;;;;;;;22.03;11.37;;;8.80;99.90;;;;;;4494144;27;658580;-64
2020/12/24 07:42:27;;;;;;;19.57;12.10;;;8.90;99.90;;;;;;4488973;27;657846;-65
2020/12/24 07:45:22;;;;;;;21.43;12.43;;;8.90;99.90;;;;;;4498444;27;658599;-64
2020/12/24 07:48:13;;;;;;;20.40;10.10;;;8.90;99.90;;;;;;4451773;27;658391;-64
2020/12/24 07:51:06;;;;;;;17.97;10.47;;;9.00;99.90;;;;;;4456792;27;657580;-64
2020/12/24 07:53:53;;;;;;;18.17;11.17;;;9.00;99.90;;;;;;4449572;27;658575;-64
2020/12/24 07:56:43;;;;;;;9.97;4.30;;;8.90;99.90;;;;;;4477647;27;657568;-64
2020/12/24 07:59:31;;;;;;;20.27;10.93;;;8.90;99.90;;;;;;4456833;27;656046;-64
2020/12/24 08:02:18;;;;;;;20.53;10.90;;;8.90;99.90;;;;;;4463810;27;657722;-65
2020/12/24 08:05:05;;;;;;;19.57;10.40;;;9.00;99.90;;;;;;4478042;27;657909;-64
2020/12/24 08:07:52;;;;;;;22.13;10.03;;;8.90;99.90;;;;;;4447088;27;657729;-65
2020/12/24 08:10:40;;;;;;;16.73;7.50;;;8.90;99.90;;;;;;4472839;27;658001;-64
2020/12/24 08:13:27;;;;;;;21.27;9.93;;;9.30;99.90;;;;;;4453546;27;656651;-65
2020/12/24 08:16:15;;;;;;;20.73;10.82;;;9.40;99.90;;;;;;4474856;27;657797;-64
2020/12/24 08:19:14;;;;;;;17.83;8.97;;;9.20;99.90;;;;;;4452846;27;658097;-65
2020/12/24 08:22:04;;;;;;;15.30;8.83;;;9.20;99.90;;;;;;4433072;27;657846;-65
2020/12/24 08:24:52;;;;;;;17.43;8.23;;;9.20;99.90;;;;;;4474120;27;657292;-65
2020/12/24 08:27:39;;;;;;;18.83;10.13;;;9.20;99.90;;;;;;4469530;27;656339;-64
2020/12/24 08:30:25;;;;;;;16.50;9.33;;;9.20;99.90;;;;;;4485190;27;658293;-64
2020/12/24 08:33:14;;;;;;;20.00;9.02;;;9.30;99.90;;;;;;4449175;27;656221;-65
2020/12/24 08:36:13;;;;;;;20.93;9.33;;;9.20;99.90;;;;;;4473801;27;656139;-65
2020/12/24 08:39:06;;;;;;;13.90;6.17;;;9.30;99.90;;;;;;4453849;27;657461;-64
2020/12/24 08:41:56;;;;;;;17.23;9.43;;;9.30;99.90;;;;;;4424717;27;657535;-65
2020/12/24 08:44:43;;;;;;;18.10;8.80;;;9.30;99.90;;;;;;4441889;27;656860;-65
2020/12/24 08:47:38;;;;;;;12.73;6.20;;;9.30;99.90;;;;;;4477646;27;657342;-64
2020/12/24 08:50:32;;;;;;;15.47;8.23;;;9.30;99.90;;;;;;4455059;27;657290;-64
2020/12/24 08:53:23;;;;;;;17.77;9.33;;;9.40;99.90;;;;;;4448735;27;656620;-64
2020/12/24 08:56:13;;;;;;;14.03;7.07;;;9.30;99.90;;;;;;4468750;27;657364;-63
2020/12/24 08:59:00;;;;;;;15.50;8.80;;;9.50;99.90;;;;;;4471374;27;656553;-64
2020/12/24 09:01:48;;;;;;;16.60;7.77;;;9.40;99.90;;;;;;4464874;27;656771;-64
2020/12/24 09:04:35;;;;;;;17.57;9.50;;;9.50;99.90;;;;;;4486387;27;657194;-64
2020/12/24 09:07:24;;;;;;;12.93;6.47;;;9.40;99.90;;;;;;4472624;27;656789;-65
2020/12/24 09:10:12;;;;;;;15.07;7.85;;;9.50;99.90;;;;;;4481255;27;656634;-65
2020/12/24 09:13:01;;;;;;;11.73;6.53;;;9.50;99.90;;;;;;4494413;27;657607;-64
2020/12/24 09:15:48;;;;;;;18.23;8.13;;;9.40;99.90;;;;;;4471554;27;656846;-64
2020/12/24 09:18:34;;;;;;;13.00;6.03;;;9.40;99.90;;;;;;4490819;27;657806;-63
2020/12/24 09:21:22;;;;;;;18.55;7.70;;;9.30;99.90;;;;;;4463220;28;656401;-64
2020/12/24 09:24:10;;;;;;;14.27;6.70;;;9.20;99.90;;;;;;4490813;27;656690;-63
2020/12/24 09:26:57;;;;;;;15.67;8.33;;;9.30;99.90;;;;;;4473796;27;656850;-64
2020/12/24 09:29:45;;;;;;;18.90;8.23;;;9.30;99.90;;;;;;4495405;27;658087;-64
2020/12/24 09:32:32;;;;;;;12.97;5.33;;;9.30;99.90;;;;;;4467946;27;656758;-65
2020/12/24 09:35:19;;;;;;;17.50;9.87;;;9.30;99.90;;;;;;4493368;27;657103;-64
2020/12/24 09:38:05;;;;;;;9.03;5.03;;;9.20;99.90;;;;;;4494140;27;656263;-64
2020/12/24 09:40:53;;;;;;;18.92;9.77;;;9.20;99.90;;;;;;4459686;27;655527;-63
2020/12/24 09:43:40;;;;;;;14.80;8.27;;;9.10;99.90;;;;;;4485782;27;656416;-64
2020/12/24 09:46:27;;;;;;;15.10;9.60;;;9.20;99.90;;;;;;4470717;27;656351;-64
2020/12/24 09:49:14;;;;;;;17.60;11.03;;;9.20;99.90;;;;;;4495109;27;657657;-65
2020/12/24 09:52:02;;;;;;;19.43;10.93;;;9.10;99.90;;;;;;4490187;27;657610;-65
2020/12/24 09:54:49;;;;;;;20.50;12.53;;;9.00;99.90;;;;;;4492133;27;657947;-65
2020/12/24 09:57:36;;;;;;;16.57;9.77;;;9.00;99.90;;;;;;4492519;27;657199;-65
2020/12/24 10:00:24;;;;;;;17.83;11.53;;;9.00;99.90;;;;;;4474398;27;657967;-65
2020/12/24 10:03:11;;;;;;;16.73;10.00;;;9.00;99.90;;;;;;4488742;27;657495;-65
2020/12/24 10:05:58;;;;;;;11.40;5.67;;;9.00;99.90;;;;;;4471251;27;657890;-65
2020/12/24 10:08:45;;;;;;;10.30;4.80;;;9.00;99.90;;;;;;4495603;27;657874;-65
2020/12/24 10:11:32;;;;;;;11.52;5.32;;;9.00;99.90;;;;;;4477814;27;657701;-65
2020/12/24 10:14:20;;;;;;;15.67;8.63;;;9.00;99.90;;;;;;4496208;27;656998;-65
2020/12/24 10:17:07;;;;;;;12.53;5.23;;;8.90;99.90;;;;;;4462292;27;656565;-66
2020/12/24 10:19:55;;;;;;;23.40;11.63;;;9.00;99.90;;;;;;4494719;27;657756;-65
2020/12/24 10:22:42;;;;;;;22.93;11.53;;;8.90;99.90;;;;;;4473079;27;658117;-66
2020/12/24 10:25:29;;;;;;;16.00;6.53;;;8.80;99.90;;;;;;4499787;27;658130;-64
2020/12/24 10:28:17;;;;;;;22.10;11.47;;;8.90;99.90;;;;;;4486348;27;657829;-66
2020/12/24 10:31:05;;;;;;;22.70;11.67;;;8.90;99.90;;;;;;4504617;27;657535;-64
2020/12/24 10:33:52;;;;;;;17.25;8.90;;;8.90;99.90;;;;;;4471494;27;658094;-66
2020/12/24 10:36:39;;;;;;;14.95;6.13;;;8.90;99.90;;;;;;4501498;27;656819;-64
2020/12/24 10:39:26;;;;;;;23.83;13.53;;;8.80;99.90;;;;;;4487858;27;656403;-65
2020/12/24 10:42:14;;;;;;;12.50;5.93;;;8.80;99.90;;;;;;4478134;27;657581;-64
2020/12/24 10:45:01;;;;;;;16.33;6.90;;;8.70;99.90;;;;;;4495995;27;656522;-65
2020/12/24 10:47:48;;;;;;;24.50;12.03;;;8.70;99.90;;;;;;4478293;27;656627;-64
2020/12/24 10:50:35;;;;;;;20.57;9.40;;;8.70;99.90;;;;;;4498066;27;657257;-63
2020/12/24 10:53:22;;;;;;;17.20;7.27;;;8.70;99.90;;;;;;4471402;27;656729;-65
2020/12/24 10:56:12;;;;;;;10.10;4.33;;;8.80;99.90;;;;;;4493124;27;657906;-64
2020/12/24 10:58:59;;;;;;;9.30;4.67;;;8.80;99.90;;;;;;4461432;27;657851;-64
2020/12/24 11:01:46;;;;;;;21.63;11.90;;;8.70;99.90;;;;;;4485510;27;655942;-65
2020/12/24 11:04:34;;;;;;;33.20;12.10;;;8.60;99.90;;;;;;4476728;27;658461;-65
2020/12/24 11:07:21;;;;;;;16.93;6.93;;;8.50;99.90;;;;;;4479945;27;658120;-64
2020/12/24 11:10:08;;;;;;;13.97;7.37;;;8.60;99.90;;;;;;4451253;27;656576;-64
2020/12/24 11:12:55;;;;;;;9.47;5.07;;;8.50;99.90;;;;;;4483125;27;657724;-63
2020/12/24 11:15:42;;;;;;;15.13;8.00;;;8.50;99.90;;;;;;4478916;27;655135;-65
2020/12/24 11:18:29;;;;;;;17.97;9.37;;;8.50;99.90;;;;;;4495248;27;656606;-64
2020/12/24 11:21:16;;;;;;;15.13;7.47;;;8.50;99.90;;;;;;4488515;27;656419;-64
2020/12/24 11:24:06;;;;;;;16.10;5.37;;;8.40;99.90;;;;;;4465568;27;657834;-64
2020/12/24 11:26:52;;;;;;;21.50;12.27;;;8.40;99.90;;;;;;4463507;27;657218;-64
2020/12/24 11:29:39;;;;;;;21.77;11.53;;;8.40;99.90;;;;;;4479880;27;658685;-63
2020/12/24 11:32:27;;;;;;;25.10;12.90;;;8.40;99.90;;;;;;4474801;27;657471;-66
2020/12/24 11:35:14;;;;;;;19.80;11.43;;;8.40;99.90;;;;;;4483788;27;658763;-63
2020/12/24 11:38:01;;;;;;;18.60;7.07;;;8.30;99.90;;;;;;4487646;27;657400;-63
2020/12/24 11:40:48;;;;;;;12.70;6.63;;;8.30;99.90;;;;;;4464209;27;657663;-65
2020/12/24 11:43:35;;;;;;;16.97;7.60;;;8.40;99.90;;;;;;4487987;27;656154;-64
2020/12/24 11:46:23;;;;;;;22.17;11.07;;;8.30;99.90;;;;;;4484595;27;656862;-64
2020/12/24 11:49:10;;;;;;;14.80;7.83;;;8.30;99.90;;;;;;4483065;27;658735;-64
2020/12/24 11:52:02;;;;;;;18.60;10.23;;;8.40;99.90;;;;;;4462519;27;656760;-65
2020/12/24 11:54:50;;;;;;;19.00;7.07;;;8.30;99.90;;;;;;4465905;27;658839;-64
2020/12/24 11:57:37;;;;;;;12.15;6.30;;;8.30;99.90;;;;;;4467709;27;656890;-66
2020/12/24 12:00:24;;;;;;;12.73;6.13;;;8.40;99.90;;;;;;4486814;27;657437;-65
2020/12/24 12:03:11;;;;;;;19.33;10.23;;;8.30;99.90;;;;;;4480649;27;656588;-64
2020/12/24 12:05:58;;;;;;;11.93;6.43;;;8.30;99.90;;;;;;4464681;27;657508;-64
2020/12/24 12:08:45;;;;;;;17.33;9.23;;;8.30;99.90;;;;;;4480727;27;657276;-64
2020/12/24 12:11:33;;;;;;;12.27;4.97;;;8.30;99.90;;;;;;4466273;27;657015;-65
2020/12/24 12:14:20;;;;;;;14.63;7.87;;;8.30;99.90;;;;;;4485084;27;656318;-64
2020/12/24 12:17:12;;;;;;;13.33;4.23;;;8.30;99.90;;;;;;4461716;27;656712;-63
2020/12/24 12:19:59;;;;;;;13.50;8.00;;;8.20;99.90;;;;;;4468341;27;657080;-64
2020/12/24 12:22:46;;;;;;;16.33;8.73;;;8.20;99.90;;;;;;4482694;27;657368;-63
2020/12/24 12:25:33;;;;;;;17.00;9.67;;;8.10;99.90;;;;;;4461562;27;656303;-63
2020/12/24 12:28:21;;;;;;;19.13;9.03;;;8.00;99.90;;;;;;4480474;27;657542;-64
2020/12/24 12:31:08;;;;;;;15.40;8.90;;;8.10;99.90;;;;;;4466469;27;657580;-64
2020/12/24 12:33:55;;;;;;;15.90;8.87;;;8.10;99.90;;;;;;4482221;27;656791;-63
2020/12/24 12:36:42;;;;;;;13.83;8.60;;;8.10;99.90;;;;;;4468209;27;656793;-64
2020/12/24 12:39:29;;;;;;;6.67;3.90;;;8.10;99.90;;;;;;4487036;27;657243;-64
2020/12/24 12:42:17;;;;;;;13.53;7.83;;;8.10;99.90;;;;;;4485930;27;655775;-65
2020/12/24 12:45:04;;;;;;;5.73;3.17;;;8.10;99.90;;;;;;4483576;27;656431;-64
2020/12/24 12:47:55;;;;;;;13.20;8.00;;;8.00;99.90;;;;;;4473122;27;655261;-65
2020/12/24 12:50:42;;;;;;;11.77;5.80;;;7.90;99.90;;;;;;4466173;27;656734;-64
2020/12/24 12:53:30;;;;;;;10.70;6.40;;;7.80;99.90;;;;;;4457773;27;657598;-63
2020/12/24 12:56:22;;;;;;;12.60;6.27;;;7.80;99.90;;;;;;4468443;27;656768;-65
2020/12/24 12:59:12;;;;;;;7.67;3.93;;;7.80;99.90;;;;;;4472084;27;656947;-63
2020/12/24 13:02:00;;;;;;;8.17;4.43;;;7.80;99.90;;;;;;4465460;27;656205;-64
2020/12/24 13:04:47;;;;;;;11.73;5.93;;;7.80;99.90;;;;;;4467918;27;656503;-66
2020/12/24 13:07:35;;;;;;;18.30;8.67;;;7.70;99.90;;;;;;4496949;27;656727;-64
2020/12/24 13:10:22;;;;;;;20.08;9.70;;;7.80;99.90;;;;;;4434274;27;657211;-65
2020/12/24 13:13:09;;;;;;;12.97;6.50;;;7.60;99.90;;;;;;4494211;27;656247;-63
2020/12/24 13:15:58;;;;;;;10.05;4.47;;;7.70;99.90;;;;;;4484782;27;656955;-64
2020/12/24 13:18:46;;;;;;;10.37;5.80;;;7.60;99.90;;;;;;4451561;27;657778;-64
2020/12/24 13:21:36;;;;;;;18.73;10.93;;;7.60;99.90;;;;;;4465492;27;657161;-64
2020/12/24 13:24:24;;;;;;;20.37;10.23;;;7.50;99.90;;;;;;4453409;27;658013;-64
2020/12/24 13:27:12;;;;;;;4.43;3.27;;;7.60;99.90;;;;;;4483618;27;658281;-65
2020/12/24 13:29:59;;;;;;;26.50;12.47;;;7.60;99.90;;;;;;4480350;28;655402;-64
2020/12/24 13:32:46;;;;;;;18.83;10.23;;;7.60;99.90;;;;;;4481337;27;658088;-63
2020/12/24 13:35:34;;;;;;;20.53;9.17;;;7.60;99.90;;;;;;4472389;27;657428;-63
2020/12/24 13:38:21;;;;;;;17.63;6.63;;;7.50;99.90;;;;;;4498567;27;656575;-64
2020/12/24 13:41:08;;;;;;;21.57;11.20;;;7.50;99.90;;;;;;4471260;27;656632;-63
2020/12/24 13:43:55;;;;;;;12.07;6.83;;;7.50;99.90;;;;;;4484452;27;659225;-64
2020/12/24 13:46:46;;;;;;;24.27;11.93;;;7.40;99.90;;;;;;4466055;27;656599;-66
2020/12/24 13:49:33;;;;;;;8.87;4.47;;;7.30;99.90;;;;;;4479146;27;659130;-64
2020/12/24 13:52:21;;;;;;;18.57;9.37;;;7.40;99.90;;;;;;4503253;27;655530;-64
2020/12/24 13:55:08;;;;;;;17.83;9.13;;;7.30;99.90;;;;;;4475550;27;656476;-64
2020/12/24 13:57:55;;;;;;;19.60;10.10;;;7.30;99.90;;;;;;4483518;27;657897;-64
2020/12/24 14:00:42;;;;;;;19.30;8.70;;;7.30;99.90;;;;;;4464554;27;658061;-65
2020/12/24 14:03:29;;;;;;;18.10;6.23;;;7.20;99.90;;;;;;4478596;27;657866;-63
2020/12/24 14:06:17;;;;;;;14.20;6.70;;;7.20;99.90;;;;;;4487291;27;656870;-64
2020/12/24 14:09:04;;;;;;;14.53;7.23;;;7.20;99.90;;;;;;4492261;27;656428;-63
2020/12/24 14:11:52;;;;;;;16.40;6.68;;;7.20;99.90;;;;;;4474965;27;656437;-66
2020/12/24 14:14:40;;;;;;;20.00;10.43;;;7.10;99.90;;;;;;4493973;27;657072;-65
2020/12/24 14:17:28;;;;;;;14.60;6.67;;;7.10;99.90;;;;;;4468847;27;657916;-64